Athens, TN

4:45 AM EDT on October 01, 2014 (GMT -0400)
Lovell | Change Station
CLOSE
Current Station
Airport
Location: Chattanooga,
Elevation: 689 ft
Nearby Weather Stations
Active Advisory: Special Statement

Elev 689 ft 35.04 °N, 85.20 °W | Updated 52 minutes ago

Partly Cloudy
Partly Cloudy
63 °F
Feels Like 63 °F
N
0
Wind Variable Wind from North

Today
High -- | Low -- °F
--% Chance of Precip.
Yesterday
High -- | Low -- °F
Precip. -- in
7:33 AM 7:22 PM
Waxing Crescent, 45% visible
Pressure 29.92 in
Visibility 6.0 miles
Clouds Clear
Dew Point 60 °F
Humidity 90%
Rainfall 0.00 in
Snow Depth Not available.
UV 0 out of 12
Pollen 5.00 out of 12
Air Quality Not available.
Flu Activity Not available.
METAR KCHA 010753Z 00000KT 6SM BR CLR 17/16 A2994 RMK AO2 SLP132 T01720156

More Conditions Fewer Conditions

Pressure 29.92 in
Visibility 6.0 miles
Clouds Clear
Dew Point 60 °F
Humidity 90%
Rainfall 0.00 in
Snow Depth Not available.
UV 0 out of 12
Pollen 5.00 out of 12
Air Quality Not available.
Flu Activity Not available.
METAR KCHA 010753Z 00000KT 6SM BR CLR 17/16 A2994 RMK AO2 SLP132 T01720156

More Conditions Fewer Conditions

10-Day Weather Forecast

Almanac

Astronomy

Oct. 01, 2014 Rise Set
Actual Time 7:33 AM EDT 7:22 PM EDT
Civil Twilight 7:07 AM EDT 7:47 PM EDT
Nautical Twilight 6:38 AM EDT 8:17 PM EDT
Astronomical Twilight 6:08 AM EDT 8:46 PM EDT
Moon 2:24 PM EDT 12:02 AM EDT
Length of Visible Light 12h 39m
Length of Day
11h 48m
Tomorrow will be 2m 12s shorter.
Waxing Crescent, 45% of the Moon is Illuminated
Today
Waxing Crescent
Oct 1
First Quarter
Oct 8
Full
Oct 15
Last Quarter
Oct 23
New

Today's Extremes

State Highs State Lows

Community

WunderPhotos

Upload Photos

1,757,902 photos uploaded!

Nearby

Snow Depth

Station Depth Elevation
No new snow has been reported.

Earthquake Activity

City Distance Mag. Time & Date
No recent earthquake activity has been reported nearby.
Minimum magnitude displayed is 2.5.

Coastal Water Temperatures

Place Temperature
No Stations Reporting

Nearby Weather Stations